Time;durP1;ratioP1;P1;durP2;ratioP2;P2;SDS_P1;SDS_P2;PMS_P1;PMS_P2;Temp;Humidity;BMP_temperature;BMP_pressure;BME280_temperature;BME280_humidity;BME280_pressure;Samples;Min_cycle;Max_cycle;Signal;HPM_P1;HPM_P2
2021/12/01 00:02:20;;;;;;;9.32;6.57;;;;;;;;;;5043547;28;20029;-81
2021/12/01 00:04:46;;;;;;;9.40;6.80;;;;;;;;;;5035403;28;20082;-86
2021/12/01 00:07:12;;;;;;;9.05;6.88;;;;;;;;;;5029449;28;20028;-82
2021/12/01 00:09:37;;;;;;;9.45;7.45;;;;;;;;;;5034172;28;20062;-83
2021/12/01 00:12:03;;;;;;;9.40;7.22;;;;;;;;;;5046384;28;20523;-86
2021/12/01 00:14:28;;;;;;;8.57;6.85;;;;;;;;;;5035027;28;20079;-81
2021/12/01 00:16:54;;;;;;;8.77;6.60;;;;;;;;;;5055642;28;20021;-82
2021/12/01 00:19:19;;;;;;;7.88;6.32;;;;;;;;;;5038740;28;20071;-83
2021/12/01 00:21:45;;;;;;;7.75;6.00;;;;;;;;;;5038352;28;20044;-83
2021/12/01 00:24:11;;;;;;;6.70;5.53;;;;;;;;;;5037100;28;20025;-83
2021/12/01 00:26:36;;;;;;;7.30;4.78;;;;;;;;;;5038465;28;20060;-85
2021/12/01 00:29:02;;;;;;;6.97;5.20;;;;;;;;;;5040489;28;20051;-81
2021/12/01 00:31:27;;;;;;;6.05;4.55;;;;;;;;;;5054098;28;20417;-80
2021/12/01 00:33:53;;;;;;;6.40;4.68;;;;;;;;;;5038409;28;20033;-86
2021/12/01 00:36:18;;;;;;;6.00;4.43;;;;;;;;;;5055717;28;20033;-81
2021/12/01 00:38:44;;;;;;;6.57;4.18;;;;;;;;;;5053177;28;20040;-81
2021/12/01 00:41:11;;;;;;;5.72;4.35;;;;;;;;;;5031608;28;20033;-86
2021/12/01 00:43:39;;;;;;;7.10;4.75;;;;;;;;;;5038671;28;20029;-80
2021/12/01 00:48:58;;;;;;;7.82;4.85;;;;;;;;;;5023280;28;20153;-81
2021/12/01 00:51:23;;;;;;;6.07;4.15;;;;;;;;;;5040745;28;20124;-80
2021/12/01 00:53:49;;;;;;;7.05;4.50;;;;;;;;;;5034316;28;20029;-82
2021/12/01 00:56:15;;;;;;;7.20;4.28;;;;;;;;;;5040612;28;20025;-80
2021/12/01 00:58:40;;;;;;;7.15;4.60;;;;;;;;;;5055612;28;20112;-82
2021/12/01 01:01:05;;;;;;;5.75;4.15;;;;;;;;;;5038419;28;20117;-81
2021/12/01 01:03:32;;;;;;;6.07;3.97;;;;;;;;;;5036078;28;20079;-82
2021/12/01 01:05:58;;;;;;;6.88;4.18;;;;;;;;;;5035432;28;20488;-86
2021/12/01 01:08:23;;;;;;;9.23;4.15;;;;;;;;;;5035465;28;20031;-81
2021/12/01 01:16:23;;;;;;;4.72;3.30;;;;;;;;;;5047710;28;20044;-82
2021/12/01 01:18:54;;;;;;;4.97;2.90;;;;;;;;;;5049669;28;20037;-81
2021/12/01 01:21:21;;;;;;;6.25;3.00;;;;;;;;;;5032390;28;20039;-81
2021/12/01 01:23:47;;;;;;;4.03;3.00;;;;;;;;;;5036603;28;20051;-87
2021/12/01 01:26:15;;;;;;;5.88;3.28;;;;;;;;;;5036226;28;20480;-86
2021/12/01 01:28:41;;;;;;;5.97;3.17;;;;;;;;;;5036149;28;20021;-86
2021/12/01 01:31:08;;;;;;;5.50;3.20;;;;;;;;;;5042903;28;20024;-82
2021/12/01 01:33:34;;;;;;;4.55;3.38;;;;;;;;;;5035583;28;20051;-86
2021/12/01 01:36:00;;;;;;;4.60;3.15;;;;;;;;;;5034025;28;20498;-85
2021/12/01 01:38:28;;;;;;;4.75;3.20;;;;;;;;;;5036393;28;20033;-81
2021/12/01 01:40:54;;;;;;;5.70;3.33;;;;;;;;;;5035302;28;20025;-81
2021/12/01 01:43:19;;;;;;;6.82;3.80;;;;;;;;;;5049654;28;20028;-81
2021/12/01 01:45:45;;;;;;;4.82;3.28;;;;;;;;;;5033904;28;20029;-82
2021/12/01 01:48:13;;;;;;;5.20;3.72;;;;;;;;;;5050783;28;20035;-85
2021/12/01 01:50:40;;;;;;;6.10;3.72;;;;;;;;;;5037208;28;20039;-82
2021/12/01 01:53:24;;;;;;;5.93;3.60;;;;;;;;;;5036755;28;20035;-81
2021/12/01 01:55:52;;;;;;;6.07;4.03;;;;;;;;;;5035933;28;20043;-82
2021/12/01 01:58:18;;;;;;;5.50;3.92;;;;;;;;;;5032385;28;20021;-82
2021/12/01 02:00:51;;;;;;;6.63;4.00;;;;;;;;;;5031611;28;20028;-81
2021/12/01 02:03:17;;;;;;;;;;;;;;;;;;5035323;28;20384;-82
2021/12/01 02:05:42;;;;;;;5.60;3.80;;;;;;;;;;5036714;28;19923;-80
2021/12/01 02:08:16;;;;;;;5.10;3.80;;;;;;;;;;5036161;28;20373;-81
2021/12/01 02:10:43;;;;;;;5.15;3.80;;;;;;;;;;5048887;28;20045;-82
2021/12/01 02:13:09;;;;;;;7.22;3.67;;;;;;;;;;5054449;28;20043;-81
2021/12/01 02:15:35;;;;;;;6.63;4.20;;;;;;;;;;5033710;28;20080;-81
2021/12/01 02:18:01;;;;;;;5.53;4.00;;;;;;;;;;5034087;28;20396;-87
2021/12/01 02:20:26;;;;;;;5.78;3.90;;;;;;;;;;5032222;28;20033;-82
2021/12/01 02:22:52;;;;;;;4.93;3.75;;;;;;;;;;5037312;28;20476;-82
2021/12/01 02:25:17;;;;;;;4.78;3.83;;;;;;;;;;5036276;28;20388;-85
2021/12/01 02:27:42;;;;;;;4.57;3.45;;;;;;;;;;5053744;28;20029;-86
2021/12/01 02:30:08;;;;;;;5.95;3.65;;;;;;;;;;5054193;28;20033;-83
2021/12/01 02:32:33;;;;;;;7.50;3.55;;;;;;;;;;5053683;28;20037;-86
2021/12/01 02:34:59;;;;;;;5.43;3.60;;;;;;;;;;5035312;28;20396;-80
2021/12/01 02:37:25;;;;;;;5.00;3.40;;;;;;;;;;5035419;28;20032;-82
2021/12/01 02:39:51;;;;;;;5.28;3.20;;;;;;;;;;5045444;28;20020;-82
2021/12/01 02:42:21;;;;;;;4.70;3.13;;;;;;;;;;5052929;28;20056;-82
2021/12/01 02:44:47;;;;;;;5.72;3.10;;;;;;;;;;5039240;28;20031;-86
2021/12/01 02:47:12;;;;;;;3.88;2.90;;;;;;;;;;5038541;28;20036;-82
2021/12/01 02:49:38;;;;;;;3.50;2.55;;;;;;;;;;5034554;28;20500;-81
2021/12/01 02:52:04;;;;;;;5.45;2.80;;;;;;;;;;5040432;28;20029;-82
2021/12/01 02:54:29;;;;;;;5.07;2.58;;;;;;;;;;5025920;28;20029;-81
2021/12/01 02:56:55;;;;;;;3.45;2.60;;;;;;;;;;5031101;28;20029;-86
2021/12/01 02:59:21;;;;;;;4.00;2.60;;;;;;;;;;5036677;28;20025;-81
2021/12/01 03:01:46;;;;;;;3.50;2.45;;;;;;;;;;5033969;28;20021;-86
2021/12/01 03:04:14;;;;;;;4.10;2.40;;;;;;;;;;5053100;28;20378;-80
2021/12/01 03:06:42;;;;;;;3.35;2.55;;;;;;;;;;5041863;28;20024;-82
2021/12/01 03:09:08;;;;;;;3.75;2.80;;;;;;;;;;5028318;28;20025;-82
2021/12/01 03:11:34;;;;;;;4.05;2.35;;;;;;;;;;5032352;28;20040;-81
2021/12/01 03:13:59;;;;;;;3.95;2.47;;;;;;;;;;5025376;28;20028;-81
2021/12/01 03:16:25;;;;;;;3.45;2.30;;;;;;;;;;5031495;28;20035;-81
2021/12/01 03:18:51;;;;;;;2.95;2.22;;;;;;;;;;5033902;28;20488;-86
2021/12/01 03:21:17;;;;;;;3.50;2.42;;;;;;;;;;5033653;28;20029;-81
2021/12/01 03:23:43;;;;;;;3.13;2.17;;;;;;;;;;5033473;28;20463;-81
2021/12/01 03:26:12;;;;;;;4.40;2.33;;;;;;;;;;5036346;28;20060;-86
2021/12/01 03:28:38;;;;;;;3.28;2.45;;;;;;;;;;5038360;28;20404;-80
2021/12/01 03:31:04;;;;;;;4.45;2.42;;;;;;;;;;5034657;28;20075;-81
2021/12/01 03:33:30;;;;;;;4.78;2.60;;;;;;;;;;5043719;28;20104;-81
2021/12/01 03:35:55;;;;;;;4.82;2.75;;;;;;;;;;5031042;28;20120;-80
2021/12/01 03:38:26;;;;;;;3.75;2.60;;;;;;;;;;5032593;28;20104;-86
2021/12/01 03:40:52;;;;;;;3.58;2.60;;;;;;;;;;5028214;28;20380;-81
2021/12/01 03:43:17;;;;;;;4.18;2.75;;;;;;;;;;5019083;28;20029;-82
2021/12/01 03:45:43;;;;;;;3.75;2.80;;;;;;;;;;5032959;28;20079;-81
2021/12/01 03:48:08;;;;;;;4.00;2.80;;;;;;;;;;5052844;28;20031;-81
2021/12/01 03:50:36;;;;;;;7.03;2.90;;;;;;;;;;5030123;28;20021;-80
2021/12/01 03:53:01;;;;;;;4.28;2.60;;;;;;;;;;5033794;28;20433;-82
2021/12/01 03:55:27;;;;;;;4.68;2.65;;;;;;;;;;5031347;28;20051;-81
2021/12/01 03:57:52;;;;;;;4.22;3.00;;;;;;;;;;5033954;28;20027;-87
2021/12/01 04:00:18;;;;;;;4.05;2.80;;;;;;;;;;5033944;28;20543;-81
2021/12/01 04:02:43;;;;;;;4.05;2.65;;;;;;;;;;5034705;28;20036;-82
2021/12/01 04:05:11;;;;;;;3.53;2.50;;;;;;;;;;5035353;28;20032;-81
2021/12/01 04:07:37;;;;;;;3.70;2.60;;;;;;;;;;5052080;28;20032;-86
2021/12/01 04:10:05;;;;;;;4.97;2.63;;;;;;;;;;5051629;28;20044;-81
2021/12/01 04:12:30;;;;;;;3.70;2.47;;;;;;;;;;5026899;28;20039;-82
2021/12/01 04:14:55;;;;;;;3.75;2.80;;;;;;;;;;5034037;28;20025;-85
2021/12/01 04:17:21;;;;;;;4.90;2.60;;;;;;;;;;5033291;28;20025;-86
2021/12/01 04:19:47;;;;;;;3.88;2.60;;;;;;;;;;5033037;28;20529;-86
2021/12/01 04:22:12;;;;;;;4.18;2.53;;;;;;;;;;5035690;28;20052;-80
2021/12/01 04:24:38;;;;;;;3.80;2.42;;;;;;;;;;5045772;28;20051;-81
2021/12/01 04:27:04;;;;;;;4.30;2.70;;;;;;;;;;5052795;28;20032;-86
2021/12/01 04:29:29;;;;;;;4.88;2.60;;;;;;;;;;5031868;28;20045;-81
2021/12/01 04:31:55;;;;;;;4.47;2.50;;;;;;;;;;5052200;28;20123;-80
2021/12/01 04:34:20;;;;;;;5.22;2.55;;;;;;;;;;5038173;28;20074;-81
2021/12/01 04:36:48;;;;;;;4.05;2.72;;;;;;;;;;5036000;28;20480;-81
2021/12/01 04:39:14;;;;;;;4.03;2.40;;;;;;;;;;5022621;28;20021;-80
2021/12/01 04:41:55;;;;;;;4.60;2.80;;;;;;;;;;5050544;28;20036;-81
2021/12/01 04:44:22;;;;;;;4.03;2.55;;;;;;;;;;5046154;28;20029;-81
2021/12/01 04:46:51;;;;;;;6.93;2.70;;;;;;;;;;5033546;28;20025;-81
2021/12/01 04:49:20;;;;;;;4.07;2.70;;;;;;;;;;5031900;28;20021;-82
2021/12/01 04:51:49;;;;;;;4.53;2.72;;;;;;;;;;5032704;28;20055;-81
2021/12/01 04:54:14;;;;;;;3.88;2.75;;;;;;;;;;5051700;28;20025;-86
2021/12/01 04:56:42;;;;;;;4.13;2.78;;;;;;;;;;5029546;28;20025;-82
2021/12/01 04:59:08;;;;;;;4.95;3.35;;;;;;;;;;5032800;28;20159;-81
2021/12/01 05:01:34;;;;;;;4.60;3.30;;;;;;;;;;5033630;28;20029;-86
2021/12/01 05:03:59;;;;;;;5.20;3.20;;;;;;;;;;5033479;28;20037;-87
2021/12/01 05:06:25;;;;;;;5.05;3.58;;;;;;;;;;5052859;28;20027;-81
2021/12/01 05:08:50;;;;;;;6.80;2.90;;;;;;;;;;5036475;28;20075;-85
2021/12/01 05:11:16;;;;;;;4.50;3.13;;;;;;;;;;5036156;28;20044;-87
2021/12/01 05:13:41;;;;;;;4.88;3.10;;;;;;;;;;5036383;28;20477;-81
2021/12/01 05:16:08;;;;;;;5.03;3.25;;;;;;;;;;5043350;28;20048;-81
2021/12/01 05:18:33;;;;;;;4.68;3.00;;;;;;;;;;5055075;28;20525;-85
2021/12/01 05:20:58;;;;;;;4.97;3.28;;;;;;;;;;5037567;28;20025;-81
2021/12/01 05:23:24;;;;;;;4.15;2.90;;;;;;;;;;5033466;28;20052;-81
2021/12/01 05:25:49;;;;;;;6.97;2.95;;;;;;;;;;5034787;28;20024;-81
2021/12/01 05:28:15;;;;;;;3.60;2.42;;;;;;;;;;5053816;28;20725;-82
2021/12/01 05:30:40;;;;;;;5.10;2.80;;;;;;;;;;5061074;28;20032;-81
2021/12/01 05:33:08;;;;;;;3.88;2.80;;;;;;;;;;5040231;28;20031;-82
2021/12/01 05:35:35;;;;;;;3.63;2.35;;;;;;;;;;5036685;28;20063;-81
2021/12/01 05:38:04;;;;;;;3.80;2.70;;;;;;;;;;5029252;28;20029;-82
2021/12/01 05:40:31;;;;;;;4.18;2.45;;;;;;;;;;5048448;28;20025;-82
2021/12/01 05:42:56;;;;;;;3.50;2.20;;;;;;;;;;5050435;28;20025;-82
2021/12/01 05:45:22;;;;;;;4.88;2.40;;;;;;;;;;5038120;28;20032;-86
2021/12/01 05:47:47;;;;;;;4.57;2.10;;;;;;;;;;5038368;28;20029;-87
2021/12/01 05:50:13;;;;;;;5.65;2.17;;;;;;;;;;5035569;28;20099;-81
2021/12/01 05:52:38;;;;;;;3.70;2.40;;;;;;;;;;5025168;28;20392;-80
2021/12/01 05:55:05;;;;;;;3.55;2.33;;;;;;;;;;5047386;28;20071;-80
2021/12/01 05:57:31;;;;;;;3.40;1.95;;;;;;;;;;5051467;28;20075;-81
2021/12/01 05:59:56;;;;;;;3.83;1.95;;;;;;;;;;5054964;28;20052;-81
2021/12/01 06:02:22;;;;;;;2.85;1.67;;;;;;;;;;5035842;28;20039;-86
2021/12/01 06:04:48;;;;;;;2.88;1.83;;;;;;;;;;5036744;28;20059;-81
2021/12/01 06:07:14;;;;;;;3.05;1.92;;;;;;;;;;5049777;28;20472;-81
2021/12/01 06:09:39;;;;;;;2.50;1.60;;;;;;;;;;5053484;28;20108;-80
2021/12/01 06:12:06;;;;;;;2.85;1.40;;;;;;;;;;5030502;28;20052;-81
2021/12/01 06:14:33;;;;;;;3.00;1.80;;;;;;;;;;5052285;28;20025;-81
2021/12/01 06:16:59;;;;;;;2.50;1.60;;;;;;;;;;5031184;28;20021;-86
2021/12/01 06:19:24;;;;;;;2.83;1.52;;;;;;;;;;5049388;28;20033;-87
2021/12/01 06:21:50;;;;;;;3.10;1.63;;;;;;;;;;5033021;28;20082;-87
2021/12/01 06:24:15;;;;;;;2.65;1.52;;;;;;;;;;5035224;28;20425;-86
2021/12/01 06:26:40;;;;;;;2.45;1.50;;;;;;;;;;5035444;28;20032;-86
2021/12/01 06:29:06;;;;;;;2.28;1.40;;;;;;;;;;5048478;28;20108;-86
2021/12/01 06:31:31;;;;;;;2.80;1.40;;;;;;;;;;5034330;28;20029;-86
2021/12/01 06:33:58;;;;;;;1.75;1.30;;;;;;;;;;5054338;28;20033;-80
2021/12/01 06:36:24;;;;;;;2.20;1.25;;;;;;;;;;5030597;28;20032;-81
2021/12/01 06:38:49;;;;;;;2.55;1.35;;;;;;;;;;5036399;28;20055;-83
2021/12/01 06:41:15;;;;;;;2.00;1.33;;;;;;;;;;5038968;28;20095;-82
2021/12/01 06:43:49;;;;;;;1.58;1.25;;;;;;;;;;5034465;28;20056;-81
2021/12/01 06:46:18;;;;;;;3.08;1.50;;;;;;;;;;5040665;28;20033;-81
2021/12/01 06:48:50;;;;;;;3.03;1.33;;;;;;;;;;5033875;28;20047;-87
2021/12/01 06:51:16;;;;;;;1.98;1.45;;;;;;;;;;5035895;28;20439;-86
2021/12/01 06:53:47;;;;;;;2.60;1.50;;;;;;;;;;5028257;28;20024;-81
2021/12/01 06:56:15;;;;;;;2.63;1.50;;;;;;;;;;5031640;28;20116;-81
2021/12/01 06:58:40;;;;;;;2.15;1.40;;;;;;;;;;5030805;28;20045;-81
2021/12/01 07:01:06;;;;;;;2.25;1.30;;;;;;;;;;5032944;28;20554;-86
2021/12/01 07:03:33;;;;;;;2.20;1.60;;;;;;;;;;5043067;28;20086;-86
2021/12/01 07:05:58;;;;;;;2.30;1.60;;;;;;;;;;5051062;28;20044;-81
2021/12/01 07:08:24;;;;;;;2.88;1.63;;;;;;;;;;5031644;28;20039;-81
2021/12/01 07:10:50;;;;;;;2.15;1.65;;;;;;;;;;5037398;28;20056;-81
2021/12/01 07:13:15;;;;;;;3.58;1.95;;;;;;;;;;5033998;28;20443;-82
2021/12/01 07:15:40;;;;;;;2.95;1.80;;;;;;;;;;5036201;28;20060;-87
2021/12/01 07:18:07;;;;;;;5.10;2.08;;;;;;;;;;5035771;28;20480;-81
2021/12/01 07:20:32;;;;;;;3.10;2.00;;;;;;;;;;5049910;28;20078;-80
2021/12/01 07:22:57;;;;;;;2.65;1.85;;;;;;;;;;5031100;28;20029;-80
2021/12/01 07:25:23;;;;;;;3.10;2.00;;;;;;;;;;5033587;28;20091;-87
2021/12/01 07:27:48;;;;;;;3.05;2.13;;;;;;;;;;5053226;28;20704;-81
2021/12/01 07:30:13;;;;;;;3.55;2.05;;;;;;;;;;5033685;28;20033;-80
2021/12/01 07:32:39;;;;;;;3.10;2.17;;;;;;;;;;5033400;28;20709;-80
2021/12/01 07:35:05;;;;;;;3.15;2.20;;;;;;;;;;5024239;28;20101;-87
2021/12/01 07:37:30;;;;;;;3.80;2.60;;;;;;;;;;5053190;28;21410;-80
2021/12/01 07:39:56;;;;;;;4.10;2.95;;;;;;;;;;5028514;28;20061;-80
2021/12/01 07:42:22;;;;;;;3.95;2.88;;;;;;;;;;5032495;28;20396;-81
2021/12/01 07:44:47;;;;;;;4.18;3.05;;;;;;;;;;5032115;28;20717;-80
2021/12/01 07:47:12;;;;;;;4.45;3.30;;;;;;;;;;5030646;28;20032;-80
2021/12/01 07:49:39;;;;;;;4.10;3.38;;;;;;;;;;5035024;28;20043;-86
2021/12/01 07:52:05;;;;;;;5.03;3.20;;;;;;;;;;5053035;28;20025;-86
2021/12/01 07:54:32;;;;;;;5.00;3.85;;;;;;;;;;5034137;28;20447;-81
2021/12/01 07:56:58;;;;;;;4.47;3.40;;;;;;;;;;5044215;28;20392;-81
2021/12/01 07:59:23;;;;;;;6.07;3.80;;;;;;;;;;5034520;28;20112;-86
2021/12/01 08:01:49;;;;;;;4.90;3.80;;;;;;;;;;5035375;28;20111;-87
2021/12/01 08:04:14;;;;;;;5.53;3.83;;;;;;;;;;5035242;28;20064;-80
2021/12/01 08:06:43;;;;;;;4.97;3.83;;;;;;;;;;5053203;28;20071;-86
2021/12/01 08:09:08;;;;;;;5.03;3.80;;;;;;;;;;5035209;28;20575;-80
2021/12/01 08:11:34;;;;;;;5.97;3.92;;;;;;;;;;5036291;28;20053;-82
2021/12/01 08:13:59;;;;;;;6.25;4.50;;;;;;;;;;5037418;28;20025;-80
2021/12/01 08:16:25;;;;;;;6.70;4.85;;;;;;;;;;5036996;28;20538;-80
2021/12/01 08:18:55;;;;;;;7.25;4.40;;;;;;;;;;5034560;28;20127;-81
2021/12/01 08:21:24;;;;;;;7.38;4.70;;;;;;;;;;5036118;28;20037;-81
2021/12/01 08:23:51;;;;;;;6.80;4.60;;;;;;;;;;5029663;28;20503;-80
2021/12/01 08:26:17;;;;;;;6.00;4.40;;;;;;;;;;5033606;28;20566;-80
2021/12/01 08:28:45;;;;;;;6.40;4.90;;;;;;;;;;5048510;28;20029;-80
2021/12/01 08:31:10;;;;;;;8.70;5.03;;;;;;;;;;5034407;28;20093;-81
2021/12/01 08:33:36;;;;;;;6.72;4.57;;;;;;;;;;5052758;28;20107;-81
2021/12/01 08:36:01;;;;;;;7.00;4.57;;;;;;;;;;5034303;28;20035;-85
2021/12/01 08:38:26;;;;;;;5.80;4.82;;;;;;;;;;5039053;28;20025;-81
2021/12/01 08:40:52;;;;;;;6.78;5.20;;;;;;;;;;5038697;28;20025;-80
2021/12/01 08:43:17;;;;;;;6.38;4.88;;;;;;;;;;5037686;28;20384;-82
2021/12/01 08:45:43;;;;;;;7.88;5.20;;;;;;;;;;5056186;28;20021;-80
2021/12/01 08:48:08;;;;;;;6.40;4.97;;;;;;;;;;5046958;28;20259;-80
2021/12/01 08:50:34;;;;;;;7.72;5.38;;;;;;;;;;5056248;28;20071;-86
2021/12/01 08:52:59;;;;;;;7.85;4.90;;;;;;;;;;5036415;28;20507;-80
2021/12/01 08:55:25;;;;;;;7.18;5.60;;;;;;;;;;5044676;28;20369;-80
2021/12/01 08:57:51;;;;;;;8.43;5.38;;;;;;;;;;5040919;28;20017;-86
2021/12/01 09:00:19;;;;;;;8.55;5.60;;;;;;;;;;5035159;28;20036;-81
2021/12/01 09:02:44;;;;;;;11.15;5.70;;;;;;;;;;5056217;28;20021;-80
2021/12/01 09:05:10;;;;;;;7.53;5.28;;;;;;;;;;5053698;28;20036;-80
2021/12/01 09:07:35;;;;;;;7.88;5.45;;;;;;;;;;5038056;28;20476;-81
2021/12/01 09:10:00;;;;;;;6.47;5.35;;;;;;;;;;5038041;28;20032;-80
2021/12/01 09:12:26;;;;;;;7.68;5.25;;;;;;;;;;5030500;28;20031;-80
2021/12/01 09:14:52;;;;;;;6.00;4.68;;;;;;;;;;5051649;28;20036;-81
2021/12/01 09:17:18;;;;;;;6.78;4.22;;;;;;;;;;5038058;28;20056;-87
2021/12/01 09:19:43;;;;;;;6.38;4.20;;;;;;;;;;5024648;28;20053;-81
2021/12/01 09:22:09;;;;;;;5.93;2.90;;;;;;;;;;5026814;28;20107;-81
2021/12/01 09:24:34;;;;;;;3.90;1.70;;;;;;;;;;5044784;28;20029;-80
2021/12/01 09:27:00;;;;;;;3.58;1.48;;;;;;;;;;5035840;28;20056;-80
2021/12/01 09:29:27;;;;;;;4.22;1.52;;;;;;;;;;5049754;28;20446;-86
2021/12/01 09:31:57;;;;;;;5.55;1.58;;;;;;;;;;5055958;28;20182;-86
2021/12/01 09:34:23;;;;;;;6.70;1.10;;;;;;;;;;5037803;28;20029;-81
2021/12/01 09:36:48;;;;;;;6.35;1.23;;;;;;;;;;5036914;28;20071;-81
2021/12/01 09:39:14;;;;;;;4.82;1.13;;;;;;;;;;5054964;28;20427;-82
2021/12/01 09:41:39;;;;;;;4.88;1.10;;;;;;;;;;5034253;28;20048;-80
2021/12/01 09:44:05;;;;;;;7.90;2.22;;;;;;;;;;5040403;28;20033;-81
2021/12/01 09:46:30;;;;;;;5.80;1.10;;;;;;;;;;5030690;28;20028;-81
2021/12/01 09:48:57;;;;;;;3.67;1.15;;;;;;;;;;5026298;28;20108;-81
2021/12/01 09:51:22;;;;;;;8.73;1.40;;;;;;;;;;5054789;28;20361;-80
2021/12/01 09:53:48;;;;;;;5.18;1.20;;;;;;;;;;5041281;28;20024;-81
2021/12/01 09:56:14;;;;;;;11.25;1.42;;;;;;;;;;5058365;28;20025;-80
2021/12/01 09:58:42;;;;;;;8.35;1.73;;;;;;;;;;5038948;28;20074;-86
2021/12/01 10:01:12;;;;;;;9.88;1.55;;;;;;;;;;5033404;28;20029;-81
2021/12/01 10:03:39;;;;;;;8.77;1.33;;;;;;;;;;5028986;28;20035;-80
2021/12/01 10:06:12;;;;;;;10.15;1.75;;;;;;;;;;5036539;28;20025;-81
2021/12/01 10:08:53;;;;;;;8.20;1.13;;;;;;;;;;5055238;28;20016;-80
2021/12/01 10:11:24;;;;;;;6.30;1.25;;;;;;;;;;5040673;28;20057;-80
2021/12/01 10:13:56;;;;;;;9.45;1.88;;;;;;;;;;5040375;28;20029;-81
2021/12/01 10:16:26;;;;;;;5.47;1.30;;;;;;;;;;5036280;28;20132;-81
2021/12/01 10:18:56;;;;;;;7.82;1.50;;;;;;;;;;5037020;28;20365;-82
2021/12/01 10:21:43;;;;;;;9.30;1.20;;;;;;;;;;5036870;28;20025;-85
2021/12/01 10:24:17;;;;;;;8.43;0.93;;;;;;;;;;5034589;28;20413;-81
2021/12/01 10:26:42;;;;;;;5.65;0.70;;;;;;;;;;5054059;28;20033;-80
2021/12/01 10:29:12;;;;;;;10.93;0.90;;;;;;;;;;5037208;28;20120;-81
2021/12/01 10:31:42;;;;;;;7.47;1.23;;;;;;;;;;5036781;28;20107;-80
2021/12/01 10:34:31;;;;;;;5.25;1.10;;;;;;;;;;5036604;28;20116;-86
2021/12/01 10:37:08;;;;;;;6.50;1.10;;;;;;;;;;5034544;28;20059;-80
2021/12/01 10:39:34;;;;;;;5.38;1.27;;;;;;;;;;5026212;28;20043;-81
2021/12/01 10:42:08;;;;;;;3.60;0.70;;;;;;;;;;5036396;28;20035;-81
2021/12/01 10:44:35;;;;;;;4.60;1.17;;;;;;;;;;5036126;28;20105;-80
2021/12/01 10:47:09;;;;;;;4.18;0.90;;;;;;;;;;5042176;28;20028;-86
2021/12/01 10:49:40;;;;;;;5.15;0.77;;;;;;;;;;5038169;28;20055;-85
2021/12/01 10:52:12;;;;;;;5.10;0.95;;;;;;;;;;5036211;28;20031;-82
2021/12/01 10:54:38;;;;;;;6.35;0.82;;;;;;;;;;5020964;28;20071;-80
2021/12/01 10:57:19;;;;;;;4.35;1.02;;;;;;;;;;5036423;28;20033;-80
2021/12/01 10:59:50;;;;;;;3.22;1.00;;;;;;;;;;5049704;28;20025;-80
2021/12/01 11:02:16;;;;;;;2.42;0.77;;;;;;;;;;5053949;28;20025;-81
2021/12/01 11:04:47;;;;;;;5.65;1.00;;;;;;;;;;5036760;28;20071;-85
2021/12/01 11:07:33;;;;;;;8.55;1.10;;;;;;;;;;5041931;28;20400;-81
2021/12/01 11:10:28;;;;;;;6.65;1.00;;;;;;;;;;5053677;28;20033;-80
2021/12/01 11:12:57;;;;;;;5.60;0.95;;;;;;;;;;5002476;28;20060;-80
2021/12/01 11:15:24;;;;;;;5.43;1.15;;;;;;;;;;5022117;28;20049;-85
2021/12/01 11:17:50;;;;;;;6.43;1.20;;;;;;;;;;5035434;28;20037;-81
2021/12/01 11:20:34;;;;;;;3.08;0.80;;;;;;;;;;5053487;28;20025;-80
2021/12/01 11:23:16;;;;;;;8.35;1.25;;;;;;;;;;5053238;28;20025;-80
2021/12/01 11:25:43;;;;;;;4.30;1.00;;;;;;;;;;5022589;28;20025;-85
2021/12/01 11:28:15;;;;;;;5.05;1.00;;;;;;;;;;5025859;28;20229;-81
2021/12/01 11:30:44;;;;;;;6.03;1.10;;;;;;;;;;5041467;28;20491;-85
2021/12/01 11:33:13;;;;;;;6.60;1.10;;;;;;;;;;5033335;28;20488;-80
2021/12/01 11:35:39;;;;;;;6.53;1.20;;;;;;;;;;5044880;28;20484;-81
2021/12/01 11:38:05;;;;;;;7.40;1.17;;;;;;;;;;5030363;28;20025;-81
2021/12/01 11:40:31;;;;;;;6.85;1.08;;;;;;;;;;5031119;28;20075;-85
2021/12/01 11:42:58;;;;;;;7.07;1.05;;;;;;;;;;5031091;28;20047;-81
2021/12/01 11:45:24;;;;;;;4.78;0.90;;;;;;;;;;5032209;28;20032;-80
2021/12/01 11:47:51;;;;;;;4.50;1.10;;;;;;;;;;5047219;28;20037;-81
2021/12/01 11:50:26;;;;;;;9.10;1.05;;;;;;;;;;5035915;28;20029;-85
2021/12/01 11:53:22;;;;;;;6.15;0.98;;;;;;;;;;5031503;28;20112;-81
2021/12/01 11:55:57;;;;;;;9.63;1.25;;;;;;;;;;5030296;28;20136;-84
2021/12/01 11:58:41;;;;;;;10.05;1.30;;;;;;;;;;5027239;28;20025;-85
2021/12/01 12:01:22;;;;;;;6.40;1.08;;;;;;;;;;5038063;28;20431;-84
2021/12/01 12:03:53;;;;;;;5.15;0.93;;;;;;;;;;5033957;28;20472;-86
2021/12/01 12:06:20;;;;;;;7.60;1.30;;;;;;;;;;5034375;28;20051;-85
2021/12/01 12:09:00;;;;;;;6.03;0.88;;;;;;;;;;5034528;28;20036;-80
2021/12/01 12:11:43;;;;;;;9.13;1.13;;;;;;;;;;5026831;28;20049;-80
2021/12/01 12:14:10;;;;;;;;;;;;;;;;;;5034929;28;20156;-82
2021/12/01 12:16:37;;;;;;;7.47;0.73;;;;;;;;;;5052042;28;19917;-80
2021/12/01 12:19:03;;;;;;;4.55;0.80;;;;;;;;;;5048124;28;20071;-80
2021/12/01 12:24:09;;;;;;;10.13;1.17;;;;;;;;;;5052399;28;20116;-81
2021/12/01 12:26:44;;;;;;;16.08;2.55;;;;;;;;;;5049266;28;20021;-81
2021/12/01 12:29:26;;;;;;;7.60;1.08;;;;;;;;;;5034891;28;20035;-81
2021/12/01 12:32:13;;;;;;;6.55;1.08;;;;;;;;;;5033253;28;20021;-81
2021/12/01 12:34:50;;;;;;;6.05;0.95;;;;;;;;;;5039396;28;20120;-80
2021/12/01 12:37:24;;;;;;;10.65;1.20;;;;;;;;;;5031924;28;20029;-83
2021/12/01 12:39:51;;;;;;;9.45;1.20;;;;;;;;;;5035883;28;20099;-80
2021/12/01 12:42:17;;;;;;;5.88;1.00;;;;;;;;;;5032657;28;20021;-82
2021/12/01 12:44:43;;;;;;;6.20;0.95;;;;;;;;;;5051722;28;20036;-81
2021/12/01 12:47:12;;;;;;;6.65;1.13;;;;;;;;;;5034049;28;20032;-81
2021/12/01 12:49:46;;;;;;;5.80;0.90;;;;;;;;;;5034889;28;20044;-80
2021/12/01 12:52:24;;;;;;;6.05;1.02;;;;;;;;;;5029736;28;20023;-79
2021/12/01 12:54:51;;;;;;;6.65;1.27;;;;;;;;;;5020798;28;20048;-81
2021/12/01 12:57:16;;;;;;;8.30;1.05;;;;;;;;;;5034807;28;20021;-81
2021/12/01 12:59:42;;;;;;;6.25;1.00;;;;;;;;;;5024250;28;20032;-87
2021/12/01 13:02:09;;;;;;;6.82;1.05;;;;;;;;;;5031871;28;20476;-82
2021/12/01 13:05:07;;;;;;;4.13;0.88;;;;;;;;;;5041628;28;20137;-81
2021/12/01 13:07:36;;;;;;;7.82;1.27;;;;;;;;;;5047353;28;20132;-82
2021/12/01 13:10:06;;;;;;;5.78;0.90;;;;;;;;;;5032358;28;20472;-82
2021/12/01 13:13:09;;;;;;;4.90;1.02;;;;;;;;;;5052248;28;20044;-82
2021/12/01 13:15:46;;;;;;;4.25;0.98;;;;;;;;;;5034426;28;20150;-82
2021/12/01 13:18:18;;;;;;;6.72;1.20;;;;;;;;;;5031080;28;20441;-81
2021/12/01 13:20:47;;;;;;;8.83;1.93;;;;;;;;;;5033994;28;20021;-87
2021/12/01 13:23:35;;;;;;;6.50;1.20;;;;;;;;;;5047886;28;20024;-82
2021/12/01 13:26:05;;;;;;;9.35;1.00;;;;;;;;;;5037203;28;20033;-82
2021/12/01 13:28:39;;;;;;;8.13;1.17;;;;;;;;;;5055414;28;20051;-79
2021/12/01 13:31:25;;;;;;;6.45;1.10;;;;;;;;;;5034406;28;20112;-81
2021/12/01 13:34:00;;;;;;;8.43;1.48;;;;;;;;;;5031934;28;20032;-82
2021/12/01 13:36:28;;;;;;;9.30;1.38;;;;;;;;;;5051962;28;20033;-82
2021/12/01 13:39:08;;;;;;;10.40;1.27;;;;;;;;;;5025888;28;20064;-80
2021/12/01 13:41:44;;;;;;;8.50;1.17;;;;;;;;;;5030490;28;20028;-82
2021/12/01 13:44:24;;;;;;;8.10;1.08;;;;;;;;;;5050548;28;20048;-86
2021/12/01 13:47:03;;;;;;;11.57;2.30;;;;;;;;;;5055186;28;20555;-81
2021/12/01 13:49:59;;;;;;;8.13;1.23;;;;;;;;;;5029642;28;20031;-87
2021/12/01 13:52:29;;;;;;;10.38;1.63;;;;;;;;;;5031017;28;20076;-85
2021/12/01 13:55:09;;;;;;;5.82;1.13;;;;;;;;;;5032439;28;20037;-79
2021/12/01 13:57:35;;;;;;;11.35;2.03;;;;;;;;;;5016150;28;20492;-85
2021/12/01 14:00:01;;;;;;;10.57;1.50;;;;;;;;;;5045403;28;20025;-80
2021/12/01 14:02:29;;;;;;;9.07;1.40;;;;;;;;;;5035896;28;20075;-81
2021/12/01 14:04:57;;;;;;;8.32;1.35;;;;;;;;;;5034985;28;20021;-81
2021/12/01 14:07:23;;;;;;;7.93;2.40;;;;;;;;;;5050986;28;20064;-82
2021/12/01 14:10:10;;;;;;;9.85;1.45;;;;;;;;;;5037892;28;20048;-81
2021/12/01 14:13:06;;;;;;;9.95;1.52;;;;;;;;;;5026833;28;20090;-81
2021/12/01 14:15:37;;;;;;;7.72;1.20;;;;;;;;;;5046007;28;20033;-81
2021/12/01 14:18:03;;;;;;;12.60;1.58;;;;;;;;;;5046951;28;20033;-79
2021/12/01 14:20:29;;;;;;;10.80;1.55;;;;;;;;;;5028170;28;20044;-80
2021/12/01 14:22:56;;;;;;;8.57;1.90;;;;;;;;;;5035261;28;20025;-87
2021/12/01 14:25:22;;;;;;;9.38;1.50;;;;;;;;;;5050750;28;20045;-81
2021/12/01 14:27:51;;;;;;;5.30;1.50;;;;;;;;;;5053224;28;20021;-81
2021/12/01 14:30:20;;;;;;;5.55;1.25;;;;;;;;;;5034987;28;20032;-82
2021/12/01 14:32:48;;;;;;;9.30;1.33;;;;;;;;;;5020052;28;20056;-79
2021/12/01 14:35:14;;;;;;;11.75;1.92;;;;;;;;;;5030734;28;20071;-80
2021/12/01 14:37:40;;;;;;;8.18;1.45;;;;;;;;;;5036956;28;20511;-80
2021/12/01 14:40:11;;;;;;;9.00;1.88;;;;;;;;;;5034910;28;20507;-80
2021/12/01 14:42:45;;;;;;;13.88;1.85;;;;;;;;;;5031354;28;20036;-81
2021/12/01 14:45:12;;;;;;;7.80;1.30;;;;;;;;;;5026608;28;20037;-80
2021/12/01 14:47:37;;;;;;;5.85;1.60;;;;;;;;;;5050875;28;20054;-79
2021/12/01 14:50:04;;;;;;;8.90;1.40;;;;;;;;;;5052605;28;20025;-80
2021/12/01 14:52:38;;;;;;;9.52;1.65;;;;;;;;;;5035961;28;20479;-81
2021/12/01 14:55:13;;;;;;;10.65;1.92;;;;;;;;;;5045973;28;20055;-79
2021/12/01 14:57:48;;;;;;;11.57;1.60;;;;;;;;;;5028311;28;20063;-81
2021/12/01 15:00:14;;;;;;;9.98;1.98;;;;;;;;;;5050782;28;20086;-86
2021/12/01 15:02:39;;;;;;;7.65;1.38;;;;;;;;;;5034168;28;20017;-81